createdAt,value
2023-02-15T00:01:39.073Z,9.97
2023-02-15T00:04:06.941Z,8.63
2023-02-15T00:06:36.772Z,9.53
2023-02-15T00:09:04.245Z,11.10
2023-02-15T00:11:40.986Z,10.10
2023-02-15T00:14:08.206Z,9.70
2023-02-15T00:16:35.425Z,9.00
2023-02-15T00:19:02.865Z,9.27
2023-02-15T00:21:33.303Z,8.90
2023-02-15T00:24:01.169Z,10.67
2023-02-15T00:26:28.777Z,10.27
2023-02-15T00:28:56.354Z,8.73
2023-02-15T00:31:28.794Z,10.70
2023-02-15T00:33:55.921Z,8.23
2023-02-15T00:36:23.075Z,10.43
2023-02-15T00:38:55.220Z,10.10
2023-02-15T00:41:24.548Z,11.27
2023-02-15T00:43:53.982Z,8.60
2023-02-15T00:46:21.107Z,9.77
2023-02-15T00:48:50.624Z,10.30
2023-02-15T00:51:18.102Z,9.43
2023-02-15T00:53:45.660Z,9.10
2023-02-15T00:56:12.987Z,9.10
2023-02-15T00:58:40.117Z,10.40
2023-02-15T01:01:11.599Z,9.80
2023-02-15T01:03:39.107Z,14.17
2023-02-15T01:06:06.283Z,8.73
2023-02-15T01:08:37.905Z,10.67
2023-02-15T01:11:09.151Z,8.17
2023-02-15T01:13:38.464Z,8.83
2023-02-15T01:16:08.086Z,8.27
2023-02-15T01:18:35.572Z,9.10
2023-02-15T01:21:10.242Z,9.67
2023-02-15T01:23:38.177Z,7.87
2023-02-15T01:26:07.563Z,8.10
2023-02-15T01:28:34.698Z,9.20
2023-02-15T01:31:08.156Z,8.93
2023-02-15T01:33:35.560Z,8.33
2023-02-15T01:36:03.026Z,9.83
2023-02-15T01:38:30.437Z,8.23
2023-02-15T01:41:17.690Z,7.50
2023-02-15T01:43:46.255Z,8.57
2023-02-15T01:46:14.556Z,9.97
2023-02-15T01:48:44.974Z,8.38
2023-02-15T01:51:12.684Z,8.73
2023-02-15T01:53:44.141Z,7.93
2023-02-15T01:56:20.919Z,6.97
2023-02-15T01:58:48.646Z,11.03
2023-02-15T02:01:15.799Z,10.83
2023-02-15T02:04:01.971Z,7.90
2023-02-15T02:06:29.218Z,9.37
2023-02-15T02:08:56.572Z,7.90
2023-02-15T02:11:23.830Z,6.63
2023-02-15T02:13:54.536Z,7.73
2023-02-15T02:16:21.718Z,11.23
2023-02-15T02:18:51.815Z,8.40
2023-02-15T02:21:30.894Z,7.80
2023-02-15T02:24:16.595Z,7.20
2023-02-15T02:26:58.162Z,6.57
2023-02-15T02:29:34.360Z,8.33
2023-02-15T02:32:36.674Z,9.63
2023-02-15T02:35:15.099Z,7.67
2023-02-15T02:37:53.003Z,7.22
2023-02-15T02:40:26.117Z,7.30
2023-02-15T02:43:05.379Z,10.83
2023-02-15T02:45:44.718Z,9.17
2023-02-15T02:48:21.818Z,8.37
2023-02-15T02:50:48.896Z,12.73
2023-02-15T02:53:15.979Z,8.00
2023-02-15T02:55:46.739Z,9.57
2023-02-15T02:58:34.874Z,7.97
2023-02-15T03:01:15.514Z,14.90
2023-02-15T03:03:48.782Z,7.30
2023-02-15T03:06:20.038Z,9.00
2023-02-15T03:08:52.517Z,9.10
2023-02-15T03:11:19.682Z,9.73
2023-02-15T03:13:48.481Z,8.07
2023-02-15T03:16:26.729Z,9.87
2023-02-15T03:18:58.866Z,7.67
2023-02-15T03:21:29.806Z,10.83
2023-02-15T03:24:16.432Z,9.53
2023-02-15T03:26:49.229Z,8.90
2023-02-15T03:29:17.797Z,7.27
2023-02-15T03:31:52.654Z,8.70
2023-02-15T03:34:19.653Z,9.27
2023-02-15T03:37:08.223Z,8.17
2023-02-15T03:40:35.134Z,10.07
2023-02-15T03:43:15.768Z,9.90
2023-02-15T03:45:57.793Z,10.30
2023-02-15T03:48:32.426Z,8.70
2023-02-15T03:51:23.103Z,9.77
2023-02-15T03:53:53.449Z,9.60
2023-02-15T03:56:20.368Z,10.20
2023-02-15T03:59:06.166Z,12.13
2023-02-15T04:01:57.588Z,7.80
2023-02-15T04:04:47.951Z,8.60
2023-02-15T04:07:14.621Z,8.20
2023-02-15T04:10:02.270Z,7.63
2023-02-15T04:12:31.434Z,7.27
2023-02-15T04:15:16.719Z,8.13
2023-02-15T04:17:45.762Z,8.40
2023-02-15T04:20:31.125Z,9.80
2023-02-15T04:23:16.520Z,9.20
2023-02-15T04:25:43.347Z,8.93
2023-02-15T04:28:10.157Z,7.20
2023-02-15T04:30:36.872Z,6.70
2023-02-15T04:33:03.710Z,7.37
2023-02-15T04:35:32.565Z,6.73
2023-02-15T04:37:59.277Z,8.93
2023-02-15T04:40:28.564Z,7.93
2023-02-15T04:42:57.796Z,7.13
2023-02-15T04:45:28.088Z,7.43
2023-02-15T04:47:57.288Z,7.07
2023-02-15T04:50:28.702Z,8.40
2023-02-15T04:53:02.600Z,7.80
2023-02-15T04:55:31.516Z,6.83
2023-02-15T04:57:58.676Z,8.07
2023-02-15T05:00:28.378Z,6.90
2023-02-15T05:02:55.425Z,6.57
2023-02-15T05:05:25.209Z,7.15
2023-02-15T05:07:52.289Z,6.60
2023-02-15T05:10:19.425Z,6.23
2023-02-15T05:12:51.376Z,5.77
2023-02-15T05:15:18.520Z,8.27
2023-02-15T05:17:45.587Z,7.17
2023-02-15T05:20:15.080Z,6.05
2023-02-15T05:22:42.219Z,5.83
2023-02-15T05:25:28.772Z,7.17
2023-02-15T05:28:14.842Z,7.00
2023-02-15T05:30:44.398Z,5.83
2023-02-15T05:33:11.597Z,7.43
2023-02-15T05:35:43.506Z,7.47
2023-02-15T05:38:10.698Z,5.73
2023-02-15T05:40:37.383Z,8.03
2023-02-15T05:43:04.044Z,7.43
2023-02-15T05:45:30.859Z,6.37
2023-02-15T05:47:59.141Z,7.23
2023-02-15T05:50:26.630Z,8.20
2023-02-15T05:52:53.758Z,7.80
2023-02-15T05:55:22.660Z,6.50
2023-02-15T05:57:52.264Z,6.33
2023-02-15T06:00:19.334Z,9.13
2023-02-15T06:02:46.115Z,8.03
2023-02-15T06:05:15.029Z,6.20
2023-02-15T06:07:45.679Z,6.40
2023-02-15T06:10:14.905Z,6.23
2023-02-15T06:12:43.767Z,6.50
2023-02-15T06:15:14.911Z,6.63
2023-02-15T06:17:44.903Z,7.63
2023-02-15T06:20:16.861Z,7.20
2023-02-15T06:22:43.558Z,6.23
2023-02-15T06:25:12.067Z,7.70
2023-02-15T06:27:41.799Z,6.47
2023-02-15T06:30:09.410Z,6.40
2023-02-15T06:32:39.177Z,6.00
2023-02-15T06:35:06.233Z,7.00
2023-02-15T06:37:32.917Z,8.10
2023-02-15T06:40:01.437Z,8.33
2023-02-15T06:42:29.699Z,6.33
2023-02-15T06:44:56.459Z,6.37
2023-02-15T06:47:23.195Z,6.30
2023-02-15T06:49:49.953Z,8.60
2023-02-15T06:52:16.682Z,8.23
2023-02-15T06:54:43.493Z,5.67
2023-02-15T06:57:10.590Z,5.40
2023-02-15T06:59:39.721Z,8.20
2023-02-15T07:02:06.602Z,6.83
2023-02-15T07:04:33.411Z,6.07
2023-02-15T07:07:00.140Z,5.33
2023-02-15T07:09:29.388Z,7.73
2023-02-15T07:12:14.579Z,5.97
2023-02-15T07:14:41.565Z,6.80
2023-02-15T07:17:18.367Z,6.10
2023-02-15T07:19:57.744Z,7.17
2023-02-15T07:22:24.462Z,8.10
2023-02-15T07:24:55.667Z,6.47
2023-02-15T07:27:24.696Z,6.23
2023-02-15T07:29:51.390Z,6.30
2023-02-15T07:32:20.396Z,8.83
2023-02-15T07:34:47.158Z,5.90
2023-02-15T07:37:13.868Z,6.57
2023-02-15T07:39:44.952Z,6.60
2023-02-15T07:42:14.185Z,6.13
2023-02-15T07:44:43.304Z,6.17
2023-02-15T07:47:10.009Z,6.77
2023-02-15T07:49:36.819Z,8.20
2023-02-15T07:52:03.589Z,8.27
2023-02-15T07:54:32.718Z,10.05
2023-02-15T07:57:01.606Z,9.07
2023-02-15T07:59:28.412Z,10.20
2023-02-15T08:01:57.367Z,10.10
2023-02-15T08:04:24.611Z,9.57
2023-02-15T08:06:54.994Z,8.83
2023-02-15T08:09:24.038Z,10.80
2023-02-15T08:11:50.800Z,9.83
2023-02-15T08:14:23.036Z,9.07
2023-02-15T08:16:51.012Z,9.53
2023-02-15T08:19:29.453Z,12.90
2023-02-15T08:22:00.174Z,11.33
2023-02-15T08:24:34.509Z,13.20
2023-02-15T08:27:07.325Z,14.10
2023-02-15T08:29:35.789Z,12.70
2023-02-15T08:32:07.168Z,13.57
2023-02-15T08:34:36.782Z,12.50
2023-02-15T08:37:03.468Z,15.07
2023-02-15T08:39:32.474Z,13.73
2023-02-15T08:41:59.184Z,17.63
2023-02-15T08:44:25.949Z,12.23
2023-02-15T08:46:52.675Z,16.08
2023-02-15T08:49:22.696Z,12.30
2023-02-15T08:51:50.657Z,12.50
2023-02-15T08:54:22.359Z,13.37
2023-02-15T08:56:49.235Z,15.37
2023-02-15T08:59:20.942Z,12.57
2023-02-15T09:01:52.688Z,12.77
2023-02-15T09:04:20.140Z,24.83
2023-02-15T09:06:49.393Z,11.50
2023-02-15T09:09:20.133Z,9.87
2023-02-15T09:11:49.378Z,15.97
2023-02-15T09:14:20.971Z,13.73
2023-02-15T09:16:50.384Z,12.63
2023-02-15T09:19:18.927Z,12.93
2023-02-15T09:21:48.080Z,9.50
2023-02-15T09:24:20.474Z,13.47
2023-02-15T09:26:49.052Z,10.43
2023-02-15T09:29:17.251Z,10.30
2023-02-15T09:31:49.721Z,12.17
2023-02-15T09:34:21.127Z,10.87
2023-02-15T09:36:51.014Z,11.67
2023-02-15T09:39:19.712Z,12.07
2023-02-15T09:42:04.441Z,10.73
2023-02-15T09:44:39.952Z,12.67
2023-02-15T09:47:26.451Z,12.13
2023-02-15T09:50:11.564Z,10.67
2023-02-15T09:53:00.116Z,10.23
2023-02-15T09:55:44.413Z,11.10
2023-02-15T09:58:41.685Z,11.57
2023-02-15T10:01:14.494Z,10.70
2023-02-15T10:04:08.494Z,9.63
2023-02-15T10:06:45.235Z,9.90
2023-02-15T10:09:35.360Z,9.97
2023-02-15T10:12:26.801Z,10.27
2023-02-15T10:14:57.134Z,10.40
2023-02-15T10:17:45.386Z,10.70
2023-02-15T10:20:33.712Z,10.97
2023-02-15T10:23:45.435Z,12.93
2023-02-15T10:26:44.111Z,10.03
2023-02-15T10:29:27.760Z,11.60
2023-02-15T10:32:17.813Z,11.60
2023-02-15T10:35:09.191Z,10.47
2023-02-15T10:38:07.034Z,10.75
2023-02-15T10:40:56.498Z,10.43
2023-02-15T10:43:51.515Z,11.97
2023-02-15T10:46:24.849Z,10.30
2023-02-15T10:49:16.582Z,11.90
2023-02-15T10:52:43.636Z,9.90
2023-02-15T10:55:25.765Z,8.53
2023-02-15T10:58:11.554Z,9.03
2023-02-15T11:00:53.010Z,10.20
2023-02-15T11:03:38.840Z,11.20
2023-02-15T11:06:12.674Z,10.43
2023-02-15T11:08:48.407Z,37.50
2023-02-15T11:11:34.616Z,17.83
2023-02-15T11:14:09.726Z,15.83
2023-02-15T11:16:41.641Z,17.07
2023-02-15T11:19:11.689Z,17.87
2023-02-15T11:21:44.823Z,21.17
2023-02-15T11:24:14.304Z,19.97
2023-02-15T11:26:45.550Z,17.50
2023-02-15T11:29:31.225Z,21.27
2023-02-15T11:31:59.354Z,21.38
2023-02-15T11:34:41.266Z,21.13
2023-02-15T11:37:19.817Z,19.37
2023-02-15T11:39:52.493Z,23.17
2023-02-15T11:42:26.449Z,27.87
2023-02-15T11:45:02.029Z,25.43
2023-02-15T11:47:31.514Z,21.90
2023-02-15T11:49:59.181Z,19.80
2023-02-15T11:52:28.801Z,15.33
2023-02-15T11:54:56.007Z,11.17
2023-02-15T11:57:41.440Z,17.33
2023-02-15T12:00:43.093Z,8.97
2023-02-15T12:03:36.986Z,12.03
2023-02-15T12:06:05.801Z,7.27
2023-02-15T12:08:41.455Z,10.27
2023-02-15T12:11:25.086Z,10.13
2023-02-15T12:14:02.791Z,12.80
2023-02-15T12:16:33.179Z,12.03
2023-02-15T12:19:03.725Z,13.93
2023-02-15T12:21:30.629Z,6.77
2023-02-15T12:24:20.363Z,12.13
2023-02-15T12:26:57.169Z,13.90
2023-02-15T12:29:28.195Z,11.87
2023-02-15T12:31:55.618Z,8.97
2023-02-15T12:34:23.888Z,11.20
2023-02-15T12:37:01.133Z,10.17
2023-02-15T12:39:30.501Z,11.10
2023-02-15T12:42:04.507Z,9.97
2023-02-15T12:44:36.694Z,7.13
2023-02-15T12:47:19.526Z,11.60
2023-02-15T12:50:04.614Z,8.20
2023-02-15T12:52:31.261Z,11.53
2023-02-15T12:55:12.489Z,7.80
2023-02-15T12:57:46.901Z,8.87
2023-02-15T13:00:19.511Z,8.50
2023-02-15T13:02:46.108Z,6.70
2023-02-15T13:05:28.395Z,5.90
2023-02-15T13:08:01.716Z,5.87
2023-02-15T13:10:36.105Z,4.83
2023-02-15T13:13:09.985Z,5.47
2023-02-15T13:15:46.764Z,5.90
2023-02-15T13:18:24.025Z,4.17
2023-02-15T13:20:53.829Z,6.80
2023-02-15T13:23:28.598Z,6.55
2023-02-15T13:25:56.657Z,4.40
2023-02-15T13:28:34.956Z,3.53
2023-02-15T13:31:02.000Z,4.13
2023-02-15T13:33:37.289Z,8.73
2023-02-15T13:36:10.567Z,4.43
2023-02-15T13:38:44.480Z,6.87
2023-02-15T13:41:14.555Z,5.07
2023-02-15T13:43:57.284Z,4.37
2023-02-15T13:46:27.517Z,4.23
2023-02-15T13:49:00.625Z,4.23
2023-02-15T13:51:46.290Z,3.57
2023-02-15T13:54:39.769Z,4.30
2023-02-15T13:57:35.945Z,15.57
2023-02-15T14:00:07.252Z,8.13
2023-02-15T14:02:47.713Z,4.23
2023-02-15T14:05:29.030Z,3.97
2023-02-15T14:08:08.519Z,3.93
2023-02-15T14:10:38.681Z,8.67
2023-02-15T14:13:05.768Z,5.60
2023-02-15T14:15:32.907Z,5.93
2023-02-15T14:18:05.737Z,5.33
2023-02-15T14:20:51.365Z,4.33
2023-02-15T14:23:31.823Z,5.45
2023-02-15T14:26:02.342Z,4.17
2023-02-15T14:28:31.026Z,3.67
2023-02-15T14:30:58.532Z,2.77
2023-02-15T14:33:37.185Z,3.13
2023-02-15T14:36:05.370Z,3.47
2023-02-15T14:38:40.771Z,4.63
2023-02-15T14:41:14.550Z,2.77
2023-02-15T14:43:47.762Z,3.13
2023-02-15T14:46:23.956Z,2.80
2023-02-15T14:48:52.339Z,2.50
2023-02-15T14:51:38.317Z,5.63
2023-02-15T14:54:08.228Z,3.07
2023-02-15T14:56:35.374Z,7.30
2023-02-15T14:59:14.809Z,3.80
2023-02-15T15:01:45.210Z,4.73
2023-02-15T15:04:14.473Z,7.23
2023-02-15T15:06:59.321Z,8.13
2023-02-15T15:09:32.701Z,4.60
2023-02-15T15:12:17.391Z,9.07
2023-02-15T15:14:46.929Z,6.07
2023-02-15T15:17:32.631Z,5.57
2023-02-15T15:20:14.454Z,6.13
2023-02-15T15:22:43.359Z,5.93
2023-02-15T15:25:34.679Z,6.57
2023-02-15T15:28:01.927Z,3.47
2023-02-15T15:30:32.180Z,3.37
2023-02-15T15:33:35.244Z,5.13
2023-02-15T15:36:20.896Z,3.67
2023-02-15T15:38:50.553Z,3.93
2023-02-15T15:41:21.095Z,5.70
2023-02-15T15:43:54.473Z,4.23
2023-02-15T15:46:31.771Z,5.43
2023-02-15T15:49:02.286Z,3.87
2023-02-15T15:51:32.627Z,3.67
2023-02-15T15:53:59.718Z,3.20
2023-02-15T15:56:30.790Z,3.47
2023-02-15T15:59:00.022Z,7.03
2023-02-15T16:01:36.656Z,7.90
2023-02-15T16:04:03.772Z,6.47
2023-02-15T16:06:37.948Z,7.87
2023-02-15T16:09:21.613Z,3.47
2023-02-15T16:12:03.473Z,3.50
2023-02-15T16:14:39.349Z,5.87
2023-02-15T16:17:07.739Z,3.87
2023-02-15T16:19:36.380Z,6.03
2023-02-15T16:22:04.646Z,4.90
2023-02-15T16:24:53.025Z,4.97
2023-02-15T16:27:35.444Z,8.43
2023-02-15T16:30:39.437Z,4.50
2023-02-15T16:33:10.778Z,4.30
2023-02-15T16:35:39.685Z,3.73
2023-02-15T16:38:12.901Z,3.90
2023-02-15T16:40:48.186Z,4.23
2023-02-15T16:43:22.581Z,6.00
2023-02-15T16:45:49.835Z,5.27
2023-02-15T16:48:23.222Z,5.93
2023-02-15T16:50:57.942Z,5.23
2023-02-15T16:53:29.064Z,4.63
2023-02-15T16:55:59.910Z,3.30
2023-02-15T16:58:32.753Z,5.30
2023-02-15T17:01:01.327Z,3.20
2023-02-15T17:03:29.143Z,6.97
2023-02-15T17:06:00.877Z,5.82
2023-02-15T17:08:44.725Z,3.63
2023-02-15T17:11:16.478Z,5.83
2023-02-15T17:14:12.786Z,4.77
2023-02-15T17:16:45.576Z,5.30
2023-02-15T17:19:18.281Z,3.83
2023-02-15T17:21:49.927Z,3.33
2023-02-15T17:24:23.772Z,5.35
2023-02-15T17:26:53.105Z,4.20
2023-02-15T17:29:29.086Z,5.23
2023-02-15T17:31:58.443Z,5.47
2023-02-15T17:34:44.216Z,4.00
2023-02-15T17:37:26.535Z,5.50
2023-02-15T17:39:53.746Z,5.33
2023-02-15T17:42:23.281Z,5.03
2023-02-15T17:44:50.701Z,4.90
2023-02-15T17:47:22.101Z,6.37
2023-02-15T17:49:50.206Z,5.10
2023-02-15T17:52:18.462Z,7.93
2023-02-15T17:55:04.567Z,4.60
2023-02-15T17:57:31.980Z,8.55
2023-02-15T18:00:17.846Z,22.50
2023-02-15T18:03:03.709Z,21.30
2023-02-15T18:05:49.548Z,15.27
2023-02-15T18:08:37.117Z,8.67
2023-02-15T18:11:25.118Z,9.43
2023-02-15T18:13:52.221Z,13.60
2023-02-15T18:16:24.803Z,8.23
2023-02-15T18:18:53.023Z,11.23
2023-02-15T18:21:20.470Z,5.53
2023-02-15T18:23:49.957Z,11.17
2023-02-15T18:26:19.600Z,11.27
2023-02-15T18:28:49.217Z,7.77
2023-02-15T18:31:16.613Z,6.33
2023-02-15T18:33:53.358Z,6.82
2023-02-15T18:36:22.661Z,9.80
2023-02-15T18:38:53.342Z,9.17
2023-02-15T18:41:24.316Z,8.50
2023-02-15T18:43:53.689Z,7.17
2023-02-15T18:46:21.652Z,7.72
2023-02-15T18:48:51.120Z,5.33
2023-02-15T18:51:22.950Z,8.13
2023-02-15T18:53:53.755Z,6.17
2023-02-15T18:56:25.021Z,7.13
2023-02-15T18:58:52.181Z,5.67
2023-02-15T19:01:20.522Z,7.17
2023-02-15T19:03:48.787Z,6.13
2023-02-15T19:06:18.036Z,6.80
2023-02-15T19:08:49.026Z,6.80
2023-02-15T19:11:18.650Z,6.00
2023-02-15T19:13:46.158Z,8.73
2023-02-15T19:16:23.251Z,12.43
2023-02-15T19:18:50.402Z,9.30
2023-02-15T19:21:20.346Z,7.93
2023-02-15T19:23:49.780Z,9.33
2023-02-15T19:26:16.840Z,6.60
2023-02-15T19:28:44.024Z,5.87
2023-02-15T19:31:17.921Z,8.37
2023-02-15T19:33:45.516Z,5.87
2023-02-15T19:36:18.956Z,5.80
2023-02-15T19:38:51.808Z,6.43
2023-02-15T19:41:31.417Z,5.63
2023-02-15T19:44:00.993Z,9.07
2023-02-15T19:46:28.154Z,6.47
2023-02-15T19:48:57.473Z,6.10
2023-02-15T19:51:25.484Z,9.03
2023-02-15T19:53:57.586Z,7.93
2023-02-15T19:56:26.908Z,6.50
2023-02-15T19:58:57.765Z,6.70
2023-02-15T20:01:25.445Z,6.20
2023-02-15T20:03:53.360Z,9.13
2023-02-15T20:06:21.042Z,5.23
2023-02-15T20:08:51.009Z,6.67
2023-02-15T20:11:18.059Z,7.20
2023-02-15T20:13:47.603Z,6.13
2023-02-15T20:16:14.936Z,7.10
2023-02-15T20:18:46.370Z,6.53
2023-02-15T20:21:16.296Z,6.67
2023-02-15T20:23:43.452Z,6.97
2023-02-15T20:26:15.000Z,5.50
2023-02-15T20:28:42.106Z,5.67
2023-02-15T20:31:14.403Z,6.53
2023-02-15T20:33:41.524Z,5.90
2023-02-15T20:36:13.184Z,5.70
2023-02-15T20:38:40.259Z,6.50
2023-02-15T20:41:31.807Z,7.13
2023-02-15T20:43:58.930Z,6.17
2023-02-15T20:46:26.251Z,5.57
2023-02-15T20:48:53.389Z,6.23
2023-02-15T20:51:21.896Z,6.37
2023-02-15T20:53:49.538Z,6.20
2023-02-15T20:56:23.636Z,8.37
2023-02-15T20:58:51.213Z,7.83
2023-02-15T21:01:21.447Z,9.83
2023-02-15T21:03:51.269Z,6.63
2023-02-15T21:06:18.226Z,9.47
2023-02-15T21:08:45.361Z,6.88
2023-02-15T21:11:19.579Z,6.40
2023-02-15T21:13:46.633Z,7.17
2023-02-15T21:16:13.776Z,6.43
2023-02-15T21:18:42.362Z,6.00
2023-02-15T21:21:19.256Z,6.87
2023-02-15T21:23:46.759Z,6.47
2023-02-15T21:26:22.562Z,6.20
2023-02-15T21:28:50.399Z,5.93
2023-02-15T21:31:21.782Z,6.85
2023-02-15T21:33:49.010Z,6.80
2023-02-15T21:36:17.778Z,6.80
2023-02-15T21:38:47.916Z,6.33
2023-02-15T21:41:38.203Z,6.70
2023-02-15T21:44:43.738Z,6.60
2023-02-15T21:47:41.466Z,6.07
2023-02-15T21:50:28.910Z,8.03
2023-02-15T21:52:56.596Z,6.63
2023-02-15T21:55:23.239Z,6.57
2023-02-15T21:57:52.376Z,5.77
2023-02-15T22:00:22.140Z,7.03
2023-02-15T22:02:51.859Z,7.20
2023-02-15T22:05:22.852Z,9.63
2023-02-15T22:07:49.989Z,7.30
2023-02-15T22:10:21.669Z,6.60
2023-02-15T22:12:50.645Z,7.23
2023-02-15T22:15:21.752Z,5.83
2023-02-15T22:17:49.550Z,6.47
2023-02-15T22:20:19.392Z,6.20
2023-02-15T22:22:52.164Z,7.30
2023-02-15T22:25:20.598Z,8.57
2023-02-15T22:27:50.459Z,6.37
2023-02-15T22:30:36.945Z,5.83
2023-02-15T22:33:03.855Z,5.70
2023-02-15T22:35:34.718Z,7.00
2023-02-15T22:38:03.952Z,7.13
2023-02-15T22:40:33.219Z,10.40
2023-02-15T22:43:02.623Z,7.17
2023-02-15T22:45:29.467Z,6.73
2023-02-15T22:47:59.571Z,7.45
2023-02-15T22:50:29.488Z,6.40
2023-02-15T22:52:58.907Z,6.90
2023-02-15T22:55:28.983Z,7.10
2023-02-15T22:57:57.411Z,6.17
2023-02-15T23:00:31.104Z,7.13
2023-02-15T23:02:58.058Z,6.07
2023-02-15T23:05:30.118Z,5.50
2023-02-15T23:07:57.965Z,6.67
2023-02-15T23:10:26.457Z,8.10
2023-02-15T23:13:13.208Z,5.87
2023-02-15T23:15:40.869Z,6.33
2023-02-15T23:18:20.370Z,6.77
2023-02-15T23:21:15.677Z,12.50
2023-02-15T23:23:44.543Z,6.37
2023-02-15T23:26:16.835Z,8.23
2023-02-15T23:28:43.634Z,6.85
2023-02-15T23:31:19.991Z,7.37
2023-02-15T23:33:47.408Z,6.17
2023-02-15T23:36:39.480Z,6.23
2023-02-15T23:39:35.808Z,6.43
2023-02-15T23:42:07.442Z,7.22
2023-02-15T23:44:37.332Z,6.50
2023-02-15T23:47:04.822Z,5.30
2023-02-15T23:49:31.597Z,7.60
2023-02-15T23:51:58.498Z,6.17
2023-02-15T23:54:31.105Z,5.43
2023-02-15T23:57:01.927Z,8.03
2023-02-15T23:59:30.869Z,7.00
